Time;durP1;ratioP1;P1;durP2;ratioP2;P2;SDS_P1;SDS_P2;PMS_P1;PMS_P2;Temp;Humidity;BMP_temperature;BMP_pressure;BME280_temperature;BME280_humidity;BME280_pressure;Samples;Min_cycle;Max_cycle;Signal;HPM_P1;HPM_P2
2023/11/23 00:00:23;;;;;;;22.40;12.45;;;6.70;99.90;;;6.49;72.75;101395.63;4993510;28;20042;-82
2023/11/23 00:02:51;;;;;;;27.10;13.13;;;6.70;99.90;;;6.54;72.88;101394.16;4989955;28;20050;-84
2023/11/23 00:05:19;;;;;;;25.58;13.18;;;6.70;99.90;;;6.50;73.31;101384.88;5024150;28;20101;-84
2023/11/23 00:07:47;;;;;;;24.63;12.43;;;6.70;99.90;;;6.54;73.40;101380.06;5024469;28;20038;-84
2023/11/23 00:10:15;;;;;;;26.02;13.35;;;6.70;99.90;;;6.53;74.19;101386.34;4991106;28;20050;-84
2023/11/23 00:12:44;;;;;;;26.23;12.80;;;6.70;99.90;;;6.60;74.12;101388.22;5023349;28;20444;-84
2023/11/23 00:15:13;;;;;;;27.52;12.95;;;6.70;99.90;;;6.63;74.48;101392.34;4989884;28;20041;-84
2023/11/23 00:17:41;;;;;;;24.05;13.02;;;6.70;99.90;;;6.68;73.95;101387.38;5004573;28;20097;-84
2023/11/23 00:20:10;;;;;;;22.67;13.00;;;6.70;99.90;;;6.67;74.05;101391.84;4956670;28;20105;-84
2023/11/23 00:22:41;;;;;;;25.25;13.13;;;6.70;99.90;;;6.68;74.14;101398.81;5021776;28;20092;-84
2023/11/23 00:25:11;;;;;;;24.02;12.90;;;6.70;99.90;;;6.69;74.25;101402.31;4990535;28;20103;-84
2023/11/23 00:27:39;;;;;;;24.65;13.10;;;6.70;99.90;;;6.72;74.15;101400.13;5005174;28;20050;-84
2023/11/23 00:30:10;;;;;;;27.25;14.07;;;6.70;99.90;;;6.72;74.24;101392.19;4987022;28;20038;-84
2023/11/23 00:32:37;;;;;;;26.90;14.02;;;6.80;99.90;;;6.68;74.24;101387.38;5003655;28;20053;-84
2023/11/23 00:35:06;;;;;;;28.15;13.52;;;6.70;99.90;;;6.55;74.68;101379.09;5006537;28;20038;-84
2023/11/23 00:37:34;;;;;;;28.45;14.07;;;6.70;99.90;;;6.50;75.11;101376.94;4972599;28;20064;-84
2023/11/23 00:40:03;;;;;;;25.17;13.52;;;6.60;99.90;;;6.54;74.94;101380.06;5005333;28;20107;-84
2023/11/23 00:42:31;;;;;;;25.08;13.05;;;6.60;99.90;;;6.61;74.95;101373.13;5005353;28;20136;-84
2023/11/23 00:44:59;;;;;;;25.30;13.23;;;6.70;99.90;;;6.64;75.04;101370.16;5006186;28;20149;-84
2023/11/23 00:47:28;;;;;;;25.85;13.07;;;6.70;99.90;;;6.68;74.77;101372.28;5022755;28;20053;-84
2023/11/23 00:49:56;;;;;;;26.40;13.50;;;6.70;99.90;;;6.69;74.80;101365.19;5004561;28;20049;-84
2023/11/23 00:52:24;;;;;;;26.80;12.98;;;6.80;99.90;;;6.75;74.69;101361.06;5024220;28;20041;-84
2023/11/23 00:54:51;;;;;;;29.65;13.88;;;6.80;99.90;;;6.71;75.10;101364.03;5006072;28;20042;-84
2023/11/23 00:57:19;;;;;;;28.75;13.70;;;6.80;99.90;;;6.72;75.17;101351.59;5020549;28;20549;-84
2023/11/23 00:59:46;;;;;;;25.73;13.77;;;6.80;99.90;;;6.73;75.01;101355.91;4970221;28;20109;-84
2023/11/23 01:02:14;;;;;;;24.73;14.23;;;6.80;99.90;;;6.73;75.09;101361.22;4986970;28;20046;-84
2023/11/23 01:04:43;;;;;;;24.25;14.02;;;6.80;99.90;;;6.79;75.20;101363.22;4969656;28;20042;-84
2023/11/23 01:07:12;;;;;;;23.52;13.27;;;6.80;99.90;;;6.81;75.45;101368.34;4983639;28;20053;-83
2023/11/23 01:09:39;;;;;;;27.17;13.32;;;6.80;99.90;;;6.87;75.18;101365.03;5003398;28;20050;-84
2023/11/23 01:12:08;;;;;;;25.45;13.35;;;6.90;99.90;;;6.91;75.22;101353.94;4998104;28;20042;-84
2023/11/23 01:14:36;;;;;;;24.20;12.93;;;6.90;99.90;;;6.92;75.51;101355.59;5021709;28;20072;-84
2023/11/23 01:17:04;;;;;;;26.42;13.15;;;6.90;99.90;;;6.95;75.63;101343.84;4988339;28;20487;-84
2023/11/23 01:19:33;;;;;;;29.17;14.00;;;6.90;99.90;;;6.99;75.83;101345.16;5005222;28;20052;-84
2023/11/23 01:22:02;;;;;;;28.73;14.55;;;7.00;99.90;;;7.04;76.19;101349.97;4987893;28;20046;-84
2023/11/23 01:24:32;;;;;;;26.40;14.43;;;7.00;99.90;;;6.96;76.48;101346.31;5023326;28;20038;-84
2023/11/23 01:27:00;;;;;;;34.20;15.77;;;6.90;99.90;;;6.89;77.34;101352.47;5021277;28;20114;-84
2023/11/23 01:29:28;;;;;;;29.33;14.15;;;6.90;99.90;;;6.86;77.85;101350.13;4990880;28;20046;-84
2023/11/23 01:31:56;;;;;;;26.73;14.52;;;6.90;99.90;;;6.85;78.38;101348.47;5026492;28;20505;-83
2023/11/23 01:34:24;;;;;;;29.17;14.25;;;6.90;99.90;;;6.88;78.33;101348.97;5027857;28;20441;-84
2023/11/23 01:36:52;;;;;;;29.48;15.07;;;6.90;99.90;;;6.90;78.44;101346.16;5005018;28;20523;-84
2023/11/23 01:39:21;;;;;;;27.52;15.30;;;6.90;99.90;;;6.91;78.93;101353.09;4990618;28;20046;-84
2023/11/23 01:41:49;;;;;;;26.70;12.95;;;6.90;99.90;;;6.94;79.04;101347.50;4991304;28;20505;-84
2023/11/23 01:44:16;;;;;;;31.67;16.02;;;6.90;99.90;;;6.99;79.01;101360.25;4991962;28;20050;-84
2023/11/23 01:46:44;;;;;;;32.60;15.68;;;7.00;99.90;;;7.00;78.97;101356.59;5010437;28;20110;-84
2023/11/23 01:49:12;;;;;;;26.95;14.10;;;7.00;99.90;;;6.99;79.31;101358.44;5010595;28;20116;-84
2023/11/23 01:51:40;;;;;;;27.88;14.20;;;7.00;99.90;;;7.04;79.26;101358.75;5009259;28;20100;-84
2023/11/23 01:54:08;;;;;;;32.20;15.30;;;7.00;99.90;;;7.08;79.43;101360.09;4992941;28;20412;-84
2023/11/23 01:56:52;;;;;;;30.83;15.02;;;7.00;99.90;;;7.12;79.31;101358.72;5008768;28;20046;-84
2023/11/23 01:59:21;;;;;;;28.20;14.25;;;7.00;99.90;;;7.12;79.46;101349.94;4968963;28;20051;-83
2023/11/23 02:01:50;;;;;;;27.23;13.45;;;7.00;99.90;;;7.12;79.33;101342.00;4937077;28;20061;-84
2023/11/23 02:04:18;;;;;;;27.77;14.43;;;7.00;99.90;;;7.11;79.70;101357.09;4970005;28;20474;-84
2023/11/23 02:06:45;;;;;;;29.40;14.38;;;7.00;99.90;;;7.14;79.68;101343.50;4966616;29;20040;-84
2023/11/23 02:09:14;;;;;;;27.20;14.32;;;7.10;99.90;;;7.13;79.71;101347.16;4933811;29;20047;-84
2023/11/23 02:11:44;;;;;;;30.10;15.00;;;7.10;99.90;;;7.15;80.02;101346.97;4965768;29;20043;-84
2023/11/23 02:14:12;;;;;;;32.30;14.17;;;7.10;99.90;;;7.17;80.18;101347.63;4950186;29;20054;-84
2023/11/23 02:16:40;;;;;;;28.27;15.38;;;7.10;99.90;;;7.18;80.34;101350.13;4957818;28;20078;-84
2023/11/23 02:19:08;;;;;;;28.80;15.40;;;7.10;99.90;;;7.16;80.42;101356.59;4961414;28;20059;-84
2023/11/23 02:21:35;;;;;;;27.27;15.65;;;7.10;99.90;;;7.15;80.79;101353.09;4985591;28;20042;-84
2023/11/23 02:24:11;;;;;;;26.08;14.52;;;7.10;99.90;;;7.14;81.02;101340.84;4961491;29;20534;-84
2023/11/23 02:26:38;;;;;;;27.92;15.48;;;7.10;99.90;;;7.18;80.91;101342.16;4955138;28;20573;-84
2023/11/23 02:29:06;;;;;;;32.30;16.05;;;7.10;99.90;;;7.17;81.46;101337.88;4952517;28;20050;-83
2023/11/23 02:31:33;;;;;;;31.35;15.77;;;7.10;99.90;;;7.11;82.22;101333.22;4968949;28;20055;-84
2023/11/23 02:34:01;;;;;;;30.95;15.85;;;7.10;99.90;;;7.13;82.22;101328.59;4968677;28;20054;-84
2023/11/23 02:36:29;;;;;;;37.58;17.92;;;7.10;99.90;;;7.13;82.65;101327.75;4969453;28;20108;-84
2023/11/23 02:38:56;;;;;;;35.05;16.95;;;7.10;99.90;;;7.12;82.73;101329.56;5007882;28;20433;-84
2023/11/23 02:41:25;;;;;;;31.05;16.60;;;7.10;99.90;;;7.15;82.91;101339.84;4992151;28;20050;-84
2023/11/23 02:43:53;;;;;;;34.38;16.83;;;7.10;99.90;;;7.21;82.83;101341.81;5008624;28;20046;-84
2023/11/23 02:46:20;;;;;;;32.05;17.30;;;7.20;99.90;;;7.22;83.19;101324.94;5007128;28;20074;-84
2023/11/23 02:48:48;;;;;;;33.67;17.45;;;7.20;99.90;;;7.18;83.81;101320.94;5007878;28;20461;-84
2023/11/23 02:51:16;;;;;;;33.50;18.02;;;7.20;99.90;;;7.18;84.15;101320.94;5026935;28;20053;-84
2023/11/23 02:53:44;;;;;;;40.50;19.52;;;7.20;99.90;;;7.20;84.38;101321.59;4993426;28;20056;-84
2023/11/23 02:56:12;;;;;;;34.65;18.27;;;7.20;99.90;;;7.21;84.76;101315.28;4992622;28;20052;-84
2023/11/23 02:58:41;;;;;;;33.33;18.00;;;7.20;99.90;;;7.28;84.56;101318.13;5026796;28;20073;-84
2023/11/23 03:01:09;;;;;;;40.53;19.65;;;7.30;99.90;;;7.27;85.13;101315.59;5001220;28;20046;-84
2023/11/23 03:03:38;;;;;;;37.38;19.60;;;7.30;99.90;;;7.30;85.58;101315.28;4989045;28;20050;-84
2023/11/23 03:06:07;;;;;;;37.22;19.85;;;7.30;99.90;;;7.31;85.44;101322.25;5014547;28;20038;-84
2023/11/23 03:08:35;;;;;;;41.40;20.55;;;7.30;99.90;;;7.32;86.19;101313.28;5025756;28;20041;-84
2023/11/23 03:11:04;;;;;;;42.50;21.20;;;7.30;99.90;;;7.34;86.30;101306.81;5007534;28;20034;-84
2023/11/23 03:13:32;;;;;;;40.08;22.15;;;7.40;99.90;;;7.33;87.28;101307.81;5024241;28;20053;-84
2023/11/23 03:16:00;;;;;;;39.42;21.58;;;7.40;99.90;;;7.35;87.64;101307.66;4990697;28;20046;-84
2023/11/23 03:18:28;;;;;;;41.83;21.98;;;7.40;99.90;;;7.38;87.65;101309.97;5022857;28;20045;-84
2023/11/23 03:20:56;;;;;;;40.90;21.70;;;7.40;99.90;;;7.38;88.06;101305.50;4991956;28;20065;-84
2023/11/23 03:23:23;;;;;;;41.88;21.23;;;7.40;99.90;;;7.40;88.29;101308.78;5008159;28;20049;-84
2023/11/23 03:25:51;;;;;;;36.50;20.77;;;7.40;99.90;;;7.43;88.56;101295.19;4990851;28;20042;-84
2023/11/23 03:28:19;;;;;;;44.38;21.52;;;7.40;99.90;;;7.46;88.54;101296.66;4999380;28;20070;-84
2023/11/23 03:30:46;;;;;;;49.60;24.70;;;7.40;99.90;;;7.43;88.92;101292.53;5019509;28;20034;-84
2023/11/23 03:33:15;;;;;;;38.05;21.75;;;7.50;99.90;;;7.44;89.27;101282.75;4990732;28;20050;-84
2023/11/23 03:35:43;;;;;;;56.03;23.80;;;7.50;99.90;;;7.48;89.17;101278.75;4973310;28;20562;-84
2023/11/23 03:38:11;;;;;;;36.50;21.38;;;7.50;99.90;;;7.49;88.86;101277.75;5006309;28;20065;-84
2023/11/23 03:40:38;;;;;;;42.10;22.65;;;7.50;99.90;;;7.50;88.97;101274.09;5006305;28;20517;-84
2023/11/23 03:43:07;;;;;;;37.25;21.58;;;7.50;99.90;;;7.51;89.42;101269.59;5023832;28;20500;-84
2023/11/23 03:45:35;;;;;;;48.05;23.40;;;7.50;99.90;;;7.51;89.59;101269.59;5005587;28;20074;-84
2023/11/23 03:48:04;;;;;;;39.97;22.08;;;7.60;99.90;;;7.48;90.00;101271.63;5022964;28;20041;-84
2023/11/23 03:50:34;;;;;;;50.78;25.45;;;7.60;99.90;;;7.49;90.25;101275.91;4990848;28;20441;-84
2023/11/23 03:53:04;;;;;;;48.13;23.52;;;7.60;99.90;;;7.47;90.83;101264.66;5024537;28;20072;-84
2023/11/23 03:55:32;;;;;;;45.85;23.77;;;7.50;99.90;;;7.47;91.20;101269.97;5023822;28;20050;-84
2023/11/23 03:58:00;;;;;;;49.60;24.08;;;7.60;99.90;;;7.44;91.91;101265.00;4986946;28;20073;-84
2023/11/23 04:00:28;;;;;;;53.70;24.98;;;7.60;99.90;;;7.48;91.92;101266.31;5007890;28;20056;-84
2023/11/23 04:02:56;;;;;;;51.55;24.75;;;7.60;99.90;;;7.48;91.96;101257.53;5023773;28;20054;-84
2023/11/23 04:05:25;;;;;;;45.70;23.17;;;7.60;99.90;;;7.50;92.06;101252.84;5024571;28;20440;-84
2023/11/23 04:07:53;;;;;;;45.80;24.10;;;7.70;99.90;;;7.54;92.19;101253.34;5024407;28;20073;-84
2023/11/23 04:10:22;;;;;;;52.95;24.88;;;7.60;99.90;;;7.60;91.94;101256.13;5024324;28;20042;-84
2023/11/23 04:12:49;;;;;;;53.08;25.63;;;7.70;99.90;;;7.63;91.58;101253.16;5006407;28;20054;-84
2023/11/23 04:15:19;;;;;;;52.58;25.08;;;7.70;99.90;;;7.61;92.03;101249.00;5004988;28;20132;-84
2023/11/23 04:17:47;;;;;;;52.38;23.98;;;7.80;99.90;;;7.65;92.09;101251.13;5005832;28;20501;-84
2023/11/23 04:20:15;;;;;;;48.67;24.63;;;7.70;99.90;;;7.65;92.13;101252.97;5005784;28;20053;-84
2023/11/23 04:22:43;;;;;;;51.40;24.20;;;7.80;99.90;;;7.68;92.40;101253.47;5007986;28;20070;-84
2023/11/23 04:25:14;;;;;;;48.65;24.75;;;7.80;99.90;;;7.68;92.44;101240.19;5024453;28;20042;-84
2023/11/23 04:27:42;;;;;;;47.35;23.75;;;7.80;99.90;;;7.74;92.22;101252.75;4987534;28;20046;-84
2023/11/23 04:30:11;;;;;;;58.35;26.77;;;7.80;99.90;;;7.74;92.44;101234.16;4995522;28;20046;-84
2023/11/23 04:32:39;;;;;;;57.03;27.23;;;7.80;99.90;;;7.76;92.48;101244.63;5006239;28;20119;-84
2023/11/23 04:35:09;;;;;;;50.72;26.38;;;7.90;99.90;;;7.79;92.48;101241.63;5023920;28;20050;-84
2023/11/23 04:37:36;;;;;;;52.17;27.92;;;7.90;99.90;;;7.78;92.62;101249.75;5007502;28;20056;-84
2023/11/23 04:40:06;;;;;;;59.92;28.58;;;7.90;99.90;;;7.78;92.98;101247.94;5024350;28;20034;-84
2023/11/23 04:42:36;;;;;;;59.20;27.15;;;7.90;99.90;;;7.80;93.23;101247.75;5005666;28;20046;-84
2023/11/23 04:45:05;;;;;;;55.45;26.90;;;7.90;99.90;;;7.81;93.09;101236.97;5006074;28;20065;-84
2023/11/23 04:47:33;;;;;;;53.53;25.92;;;7.90;99.90;;;7.83;93.20;101250.06;4988001;28;20081;-84
2023/11/23 04:50:01;;;;;;;55.53;26.50;;;7.90;99.90;;;7.85;93.17;101240.09;4991866;28;20122;-84
2023/11/23 04:52:28;;;;;;;64.28;27.73;;;8.00;99.90;;;7.84;93.40;101243.75;5003580;28;20065;-84
2023/11/23 04:54:56;;;;;;;60.33;26.77;;;8.00;99.90;;;7.85;93.49;101232.94;5016699;28;20505;-85
2023/11/23 04:57:24;;;;;;;48.10;26.25;;;8.00;99.90;;;7.87;93.44;101243.41;5004058;28;20424;-84
2023/11/23 04:59:52;;;;;;;56.20;26.92;;;8.00;99.90;;;7.87;93.20;101246.91;5006270;28;20100;-84
2023/11/23 05:02:20;;;;;;;58.50;27.48;;;8.00;99.90;;;7.90;93.46;101243.06;5015111;28;20123;-86
2023/11/23 05:04:49;;;;;;;58.40;27.08;;;8.00;99.90;;;7.85;94.10;101256.03;4997219;28;20613;-86
2023/11/23 05:07:16;;;;;;;47.38;25.77;;;8.00;99.90;;;7.89;94.05;101247.53;5005257;28;20042;-83
2023/11/23 05:09:44;;;;;;;52.53;25.58;;;8.00;99.90;;;7.89;94.02;101252.84;5015185;28;20045;-84
2023/11/23 05:12:11;;;;;;;58.47;26.35;;;8.00;99.90;;;7.95;93.41;101256.63;4999349;28;20045;-84
2023/11/23 05:14:39;;;;;;;49.17;24.35;;;8.00;99.90;;;7.97;93.33;101244.84;4983068;28;20092;-85
2023/11/23 05:17:08;;;;;;;62.63;26.38;;;8.00;99.90;;;7.97;93.49;101250.16;4986925;28;20046;-84
2023/11/23 05:19:36;;;;;;;57.90;26.70;;;8.10;99.90;;;7.96;93.71;101247.69;4995719;28;20073;-84
2023/11/23 05:22:04;;;;;;;50.03;26.52;;;8.10;99.90;;;7.98;93.57;101241.19;4985121;28;20110;-85
2023/11/23 05:24:32;;;;;;;59.33;27.60;;;8.10;99.90;;;8.00;93.47;101233.03;5001463;28;20068;-84
2023/11/23 05:27:00;;;;;;;55.60;27.80;;;8.10;99.90;;;7.99;93.94;101226.06;5000382;28;20485;-84
2023/11/23 05:29:27;;;;;;;54.13;27.05;;;8.10;99.90;;;7.99;94.37;101223.41;4983559;28;20456;-85
2023/11/23 05:31:55;;;;;;;50.45;26.30;;;8.10;99.90;;;8.00;94.18;101227.72;5016211;28;20460;-84
2023/11/23 05:34:24;;;;;;;56.78;27.10;;;8.10;99.90;;;8.00;94.23;101227.72;5017484;28;20100;-84
2023/11/23 05:36:51;;;;;;;57.55;27.70;;;8.10;99.90;;;8.02;94.58;101224.91;5018161;28;20104;-84
2023/11/23 05:39:19;;;;;;;55.92;27.13;;;8.10;99.90;;;8.05;94.51;101228.00;5017366;28;20125;-84
2023/11/23 05:41:47;;;;;;;50.45;26.83;;;8.20;99.90;;;8.07;94.35;101231.34;4990264;28;20049;-85
2023/11/23 05:44:14;;;;;;;54.47;26.15;;;8.20;99.90;;;8.10;94.31;101231.00;4991255;28;20073;-85
2023/11/23 05:46:47;;;;;;;58.17;27.85;;;8.20;99.90;;;8.12;94.27;101221.00;5006592;28;20647;-84
2023/11/23 05:49:14;;;;;;;55.78;28.20;;;8.20;99.90;;;8.15;94.21;101228.63;4987594;28;20069;-87
2023/11/23 05:51:45;;;;;;;59.85;28.67;;;8.20;99.90;;;8.15;94.52;101225.97;4980908;28;20049;-88
2023/11/23 05:54:13;;;;;;;54.25;27.70;;;8.30;99.90;;;8.18;94.48;101222.94;5016591;28;20058;-85
2023/11/23 05:56:41;;;;;;;54.97;28.00;;;8.10;99.90;;;8.19;94.20;101232.56;5000187;28;20037;-85
2023/11/23 05:59:09;;;;;;;49.63;26.15;;;8.30;99.90;;;8.21;94.38;101222.59;5018300;28;20073;-85
2023/11/23 06:01:38;;;;;;;49.50;26.90;;;8.30;99.90;;;8.25;94.01;101223.91;5004381;28;20516;-85
2023/11/23 06:04:06;;;;;;;50.47;26.50;;;8.30;99.90;;;8.27;93.89;101218.41;5016818;28;20080;-85
2023/11/23 06:06:34;;;;;;;51.15;27.10;;;8.30;99.90;;;8.26;94.06;101222.91;4999716;28;20481;-85
2023/11/23 06:09:03;;;;;;;54.10;26.55;;;8.30;99.90;;;8.26;94.30;101212.28;5002999;28;20038;-84
2023/11/23 06:11:30;;;;;;;60.90;29.67;;;8.30;99.90;;;8.25;94.71;101223.91;5003387;28;20122;-85
2023/11/23 06:13:58;;;;;;;56.20;28.80;;;8.40;99.90;;;8.25;95.02;101209.81;5020501;28;20038;-85
2023/11/23 06:16:25;;;;;;;57.35;29.88;;;8.40;99.90;;;8.27;94.81;101213.09;5021201;28;20562;-85
2023/11/23 06:18:53;;;;;;;50.40;28.92;;;8.40;99.90;;;8.30;94.66;101212.75;4986717;28;20513;-85
2023/11/23 06:21:21;;;;;;;56.03;27.85;;;8.40;99.90;;;8.30;94.80;101199.47;5020894;28;20042;-84
2023/11/23 06:23:50;;;;;;;52.35;27.80;;;8.40;99.90;;;8.31;94.66;101202.94;5021401;28;20052;-85
2023/11/23 06:26:20;;;;;;;51.35;27.45;;;8.40;99.90;;;8.32;94.70;101199.28;5003916;28;20111;-84
2023/11/23 06:28:48;;;;;;;50.50;27.03;;;8.40;99.90;;;8.34;94.75;101191.94;5024533;28;20466;-83
2023/11/23 06:31:17;;;;;;;59.13;28.92;;;8.40;99.90;;;8.37;94.40;101196.94;5026044;28;20046;-84
2023/11/23 06:33:45;;;;;;;48.72;26.67;;;8.40;99.90;;;8.35;94.54;101204.25;5006935;28;20140;-83
2023/11/23 06:36:12;;;;;;;54.45;26.95;;;8.50;99.90;;;8.38;94.60;101204.72;5006625;28;20050;-84
2023/11/23 06:38:42;;;;;;;52.72;27.65;;;8.50;99.90;;;8.37;94.61;101203.09;4990511;28;20077;-84
2023/11/23 06:41:19;;;;;;;45.30;26.85;;;8.50;99.90;;;8.37;94.79;101197.75;5003360;28;20062;-84
2023/11/23 06:43:48;;;;;;;51.00;26.52;;;8.50;99.90;;;8.42;94.69;101200.72;5009611;28;20045;-84
2023/11/23 06:46:17;;;;;;;51.35;28.17;;;8.50;99.90;;;8.41;94.17;101214.19;5023162;28;20089;-84
2023/11/23 06:48:45;;;;;;;55.05;29.17;;;8.50;99.90;;;8.41;94.58;101199.06;5008393;28;20046;-84
2023/11/23 06:51:13;;;;;;;49.13;26.90;;;8.50;99.90;;;8.43;94.58;101205.00;5005670;28;20046;-84
2023/11/23 06:53:45;;;;;;;52.85;28.48;;;8.50;99.90;;;8.43;94.81;101202.34;5025113;28;20055;-84
2023/11/23 06:56:14;;;;;;;51.38;27.98;;;8.50;99.90;;;8.43;94.96;101202.34;5006273;28;20053;-84
2023/11/23 06:58:46;;;;;;;52.60;28.40;;;8.50;99.90;;;8.45;94.74;101197.72;5024439;28;20058;-84
2023/11/23 07:01:14;;;;;;;51.88;28.17;;;8.60;99.90;;;8.48;95.11;101194.66;5006870;28;20049;-84
2023/11/23 07:03:42;;;;;;;56.65;29.42;;;8.60;99.90;;;8.51;94.88;101196.97;5011499;28;20046;-84
2023/11/23 07:06:10;;;;;;;59.38;29.27;;;8.60;99.90;;;8.52;94.85;101193.31;5005822;28;20077;-84
2023/11/23 07:08:40;;;;;;;59.95;30.05;;;8.60;99.90;;;8.53;95.30;101188.81;5023269;28;20070;-84
2023/11/23 07:11:08;;;;;;;56.17;29.60;;;8.60;99.90;;;8.52;95.73;101190.66;5024229;28;20448;-84
2023/11/23 07:13:35;;;;;;;61.00;30.85;;;8.70;99.90;;;8.52;95.82;101190.66;5002037;28;20429;-84
2023/11/23 07:16:06;;;;;;;57.83;30.35;;;8.70;99.90;;;8.55;95.68;101183.34;5020349;28;20042;-83
2023/11/23 07:18:33;;;;;;;51.88;28.65;;;8.70;99.90;;;8.58;95.75;101178.47;4971701;28;20057;-84
2023/11/23 07:21:01;;;;;;;62.35;29.90;;;8.70;99.90;;;8.58;95.80;101185.63;5004498;28;20074;-84
2023/11/23 07:23:28;;;;;;;58.15;31.33;;;8.70;99.90;;;8.60;95.77;101173.81;5004537;28;20041;-84
2023/11/23 07:25:56;;;;;;;61.38;31.45;;;8.70;99.90;;;8.60;96.40;101181.78;5002579;28;20041;-84
2023/11/23 07:28:26;;;;;;;58.95;30.38;;;8.70;99.90;;;8.63;96.28;101184.06;5022374;28;20509;-84
2023/11/23 07:30:56;;;;;;;59.53;30.98;;;8.80;99.90;;;8.65;96.17;101179.41;5005432;28;20124;-84
2023/11/23 07:33:29;;;;;;;56.58;30.50;;;8.80;99.90;;;8.69;96.05;101187.88;5023156;28;20057;-84
2023/11/23 07:35:56;;;;;;;54.03;30.70;;;8.80;99.90;;;8.69;96.24;101183.38;5002155;28;20046;-84
2023/11/23 07:38:25;;;;;;;54.03;29.55;;;8.80;99.90;;;8.72;95.86;101187.47;4992099;28;20051;-83
2023/11/23 07:40:53;;;;;;;54.67;29.75;;;8.80;99.90;;;8.72;95.91;101184.81;4989330;28;20137;-84
2023/11/23 07:43:21;;;;;;;51.20;29.08;;;8.90;99.90;;;8.72;95.81;101175.00;5004559;28;20296;-84
2023/11/23 07:45:48;;;;;;;59.35;28.92;;;8.90;99.90;;;8.73;96.03;101160.69;5021876;28;20073;-84
2023/11/23 07:48:16;;;;;;;55.80;29.45;;;8.90;99.90;;;8.74;96.17;101162.38;5021441;28;20046;-84
2023/11/23 07:50:45;;;;;;;53.80;29.33;;;8.90;99.90;;;8.79;96.23;101158.34;4970647;28;20065;-84
2023/11/23 07:53:13;;;;;;;54.53;29.48;;;8.90;99.90;;;8.78;95.80;101160.16;5003611;28;20050;-84
2023/11/23 07:55:41;;;;;;;59.17;30.08;;;8.90;99.90;;;8.82;95.74;101150.81;5005392;28;20042;-84
2023/11/23 07:58:09;;;;;;;53.88;30.35;;;8.90;99.90;;;8.82;95.94;101153.47;5003964;28;20432;-84
2023/11/23 08:00:40;;;;;;;55.63;30.10;;;9.00;99.90;;;8.84;96.14;101142.66;5021979;28;20065;-84
2023/11/23 08:03:09;;;;;;;53.70;29.23;;;9.00;99.90;;;8.85;96.64;101141.66;5003716;28;20050;-84
2023/11/23 08:05:37;;;;;;;56.58;30.52;;;9.00;99.90;;;8.87;96.64;101140.44;4974736;28;20053;-84
2023/11/23 08:08:06;;;;;;;56.22;29.98;;;9.00;99.90;;;8.90;96.89;101152.56;4984178;28;20047;-84
2023/11/23 08:10:34;;;;;;;57.35;30.30;;;9.00;99.90;;;8.91;96.84;101146.22;5002062;28;20089;-84
2023/11/23 08:13:02;;;;;;;54.97;29.90;;;9.10;99.90;;;8.93;96.49;101157.50;5001912;28;20528;-84
2023/11/23 08:15:29;;;;;;;54.63;29.45;;;9.10;99.90;;;8.94;96.32;101152.03;5002465;28;20065;-84
2023/11/23 08:17:57;;;;;;;51.42;28.88;;;9.10;99.90;;;8.95;96.42;101153.66;4996036;28;20053;-84
2023/11/23 08:20:26;;;;;;;56.55;28.45;;;9.10;99.90;;;8.97;96.17;101156.13;4990933;28;20046;-84
2023/11/23 08:22:54;;;;;;;51.20;28.67;;;9.10;99.90;;;8.99;96.38;101167.44;4987978;28;20052;-84
2023/11/23 08:25:23;;;;;;;48.38;27.95;;;9.20;99.90;;;9.02;96.26;101164.38;5004166;28;20049;-84
2023/11/23 08:27:51;;;;;;;50.22;28.58;;;9.10;99.90;;;9.02;96.51;101159.88;4986728;28;20046;-84
2023/11/23 08:30:22;;;;;;;49.88;27.35;;;9.20;99.90;;;9.05;96.53;101160.53;5003853;28;20049;-84
2023/11/23 08:32:50;;;;;;;55.67;28.20;;;9.20;99.90;;;9.07;96.69;101153.19;4990169;28;20050;-84
2023/11/23 08:35:18;;;;;;;46.85;27.00;;;9.20;99.90;;;9.08;96.31;101158.34;5003564;28;20468;-84
2023/11/23 08:37:46;;;;;;;48.50;28.05;;;9.20;99.90;;;9.09;96.36;101149.34;5003489;28;20046;-84
2023/11/23 08:40:14;;;;;;;47.95;28.17;;;9.30;99.90;;;9.11;96.47;101146.50;5002790;28;20044;-84
2023/11/23 08:42:43;;;;;;;45.20;27.27;;;9.30;99.90;;;9.13;96.36;101149.81;5003509;28;20041;-84
2023/11/23 08:45:11;;;;;;;46.42;26.70;;;9.30;99.90;;;9.15;96.16;101137.13;5003893;28;20049;-84
2023/11/23 08:47:38;;;;;;;48.67;26.73;;;9.30;99.90;;;9.17;96.18;101148.41;5020597;28;20088;-84
2023/11/23 08:50:08;;;;;;;44.75;26.63;;;9.30;99.90;;;9.18;96.18;101142.91;5021057;28;20088;-84
2023/11/23 08:52:37;;;;;;;49.13;26.60;;;9.40;99.90;;;9.16;96.42;101133.47;5002242;28;20465;-84
2023/11/23 08:55:08;;;;;;;45.83;26.05;;;9.40;99.90;;;9.19;96.13;101139.25;5014219;28;20073;-84
2023/11/23 08:57:40;;;;;;;43.95;26.92;;;9.40;99.90;;;9.22;95.90;101132.72;5004170;28;20046;-84
2023/11/23 09:00:11;;;;;;;43.23;25.90;;;9.40;99.90;;;9.21;95.94;101137.22;4999628;28;20065;-83
2023/11/23 09:02:39;;;;;;;46.45;27.15;;;9.40;99.90;;;9.24;95.80;101139.50;5019337;28;20375;-84
2023/11/23 09:05:09;;;;;;;45.95;26.25;;;9.40;99.90;;;9.24;95.96;101142.16;5002761;28;20439;-84
2023/11/23 09:07:37;;;;;;;44.17;26.45;;;9.40;99.90;;;9.26;95.80;101137.47;4981327;28;20046;-84
2023/11/23 09:10:06;;;;;;;44.90;26.15;;;9.40;99.90;;;9.27;95.44;101138.31;5019491;28;20049;-84
2023/11/23 09:12:34;;;;;;;44.17;26.42;;;9.40;99.90;;;9.28;95.76;101130.16;5002199;28;20046;-84
2023/11/23 09:15:04;;;;;;;43.30;26.27;;;9.50;99.90;;;9.31;95.56;101130.78;4984167;28;20101;-84
2023/11/23 09:17:35;;;;;;;41.83;25.90;;;9.50;99.90;;;9.32;95.59;101133.28;5002996;28;20391;-84
2023/11/23 09:20:09;;;;;;;41.05;25.95;;;9.50;99.90;;;9.33;95.51;101121.59;5005243;28;20042;-84
2023/11/23 09:22:36;;;;;;;46.85;27.70;;;9.50;99.90;;;9.34;95.45;101120.59;5002687;28;20064;-84
2023/11/23 09:25:06;;;;;;;50.75;27.88;;;9.50;99.90;;;9.34;95.25;101120.59;4982811;28;20069;-84
2023/11/23 09:27:35;;;;;;;49.50;27.67;;;9.50;99.90;;;9.36;95.08;101115.88;5012759;28;20042;-84
2023/11/23 09:30:06;;;;;;;43.38;25.48;;;9.50;99.90;;;9.39;95.06;101101.41;4985800;28;20497;-84
2023/11/23 09:32:36;;;;;;;;;;;9.60;99.90;;;9.39;95.13;101090.75;5010815;28;20053;-84
2023/11/23 09:35:06;;;;;;;46.38;26.88;;;9.60;99.90;;;9.40;94.99;101098.53;5013876;28;19925;-84
2023/11/23 09:37:34;;;;;;;41.63;25.70;;;9.60;99.90;;;9.43;95.48;101102.66;5002863;28;20429;-84
2023/11/23 09:40:02;;;;;;;41.80;25.50;;;9.60;99.90;;;9.44;95.45;101117.63;5013570;28;20034;-84
2023/11/23 09:42:37;;;;;;;48.17;27.30;;;9.60;99.90;;;9.44;95.53;101110.47;4998350;28;20441;-84
2023/11/23 09:45:08;;;;;;;42.50;25.40;;;9.60;99.90;;;9.44;95.51;101122.94;5023737;28;20519;-84
2023/11/23 09:47:39;;;;;;;48.05;26.52;;;9.60;99.90;;;9.45;95.39;101122.75;5010249;28;20051;-84
2023/11/23 09:50:09;;;;;;;43.00;25.87;;;9.60;99.90;;;9.46;95.18;101116.41;4983826;28;20042;-85
2023/11/23 09:52:38;;;;;;;39.63;24.90;;;9.60;99.90;;;9.47;95.13;101093.31;4967201;28;20053;-84
2023/11/23 09:55:07;;;;;;;44.40;25.27;;;9.70;99.90;;;9.46;95.11;101097.78;4987346;28;20508;-85
2023/11/23 09:57:35;;;;;;;42.40;26.08;;;9.70;99.90;;;9.47;94.82;101082.66;5001957;28;20046;-85
2023/11/23 10:00:09;;;;;;;44.63;25.75;;;9.70;99.90;;;9.48;94.42;101087.78;4975842;28;20085;-85
2023/11/23 10:02:38;;;;;;;45.40;26.58;;;9.70;99.90;;;9.47;94.91;101099.44;4995945;28;20495;-85
2023/11/23 10:05:08;;;;;;;44.05;26.90;;;9.70;99.90;;;9.47;94.85;101094.13;5001759;28;20045;-87
2023/11/23 10:07:36;;;;;;;45.08;25.70;;;9.70;99.90;;;9.47;94.82;101093.31;5001069;28;20046;-85
2023/11/23 10:10:05;;;;;;;42.42;27.85;;;9.70;99.90;;;9.50;94.80;101103.56;5000422;28;20487;-86
2023/11/23 10:12:34;;;;;;;45.55;28.02;;;9.70;99.90;;;9.49;95.04;101093.94;5001659;28;20046;-85
2023/11/23 10:15:02;;;;;;;45.45;27.98;;;9.70;99.90;;;9.49;94.84;101076.09;5001267;28;20038;-85
2023/11/23 10:17:31;;;;;;;44.35;26.50;;;9.70;99.90;;;9.50;94.96;101068.94;4984899;28;20072;-85